Time;durP1;ratioP1;P1;durP2;ratioP2;P2;SDS_P1;SDS_P2;PMS_P1;PMS_P2;Temp;Humidity;BMP_temperature;BMP_pressure;BME280_temperature;BME280_humidity;BME280_pressure;Samples;Min_cycle;Max_cycle;Signal;HPM_P1;HPM_P2
2024/02/27 00:01:10;;;;;;;6.07;3.97;;;4.70;99.90;;;;;;5030177;28;20033;-38
2024/02/27 00:03:35;;;;;;;6.70;4.35;;;4.70;99.90;;;;;;5040845;28;20029;-39
2024/02/27 00:06:03;;;;;;;6.88;4.75;;;4.80;99.90;;;;;;5039552;28;20526;-41
2024/02/27 00:08:28;;;;;;;8.43;5.05;;;4.70;99.90;;;;;;5038418;28;20112;-41
2024/02/27 00:10:54;;;;;;;6.07;4.70;;;4.80;99.90;;;;;;5037308;28;20157;-36
2024/02/27 00:13:20;;;;;;;6.65;4.38;;;4.80;99.90;;;;;;5042282;28;20494;-38
2024/02/27 00:15:45;;;;;;;6.65;4.38;;;4.80;99.90;;;;;;5039358;28;20154;-40
2024/02/27 00:18:16;;;;;;;6.50;4.63;;;4.80;99.90;;;;;;5039161;28;20028;-37
2024/02/27 00:20:42;;;;;;;8.48;4.93;;;4.90;99.90;;;;;;5041411;28;20029;-41
2024/02/27 00:23:08;;;;;;;7.90;4.55;;;5.00;99.90;;;;;;5042318;28;20075;-39
2024/02/27 00:25:34;;;;;;;9.40;5.10;;;5.10;99.90;;;;;;5038385;28;20477;-39
2024/02/27 00:27:59;;;;;;;8.27;4.90;;;5.00;99.90;;;;;;5042122;28;20033;-41
2024/02/27 00:30:25;;;;;;;6.68;4.90;;;4.90;99.90;;;;;;5038717;28;22315;-42
2024/02/27 00:32:52;;;;;;;7.18;4.32;;;4.90;99.90;;;;;;5035703;28;20037;-39
2024/02/27 00:35:18;;;;;;;7.45;4.70;;;4.80;99.90;;;;;;5037168;28;20057;-38
2024/02/27 00:37:44;;;;;;;7.13;4.43;;;4.80;99.90;;;;;;5040778;28;20478;-38
2024/02/27 00:40:12;;;;;;;7.75;4.75;;;4.80;99.90;;;;;;5037738;28;20043;-40
2024/02/27 00:42:38;;;;;;;7.70;4.53;;;4.70;99.90;;;;;;5041669;28;20128;-38
2024/02/27 00:45:04;;;;;;;7.15;4.45;;;4.60;99.90;;;;;;5040729;28;20275;-41
2024/02/27 00:47:30;;;;;;;8.32;4.82;;;4.60;99.90;;;;;;5041275;28;20087;-42
2024/02/27 00:49:56;;;;;;;8.93;4.60;;;4.60;99.90;;;;;;5040518;28;20502;-41
2024/02/27 00:52:22;;;;;;;7.72;4.80;;;4.60;99.90;;;;;;5040541;28;20033;-37
2024/02/27 00:54:48;;;;;;;11.20;5.65;;;4.50;99.90;;;;;;5036765;28;20037;-42
2024/02/27 00:57:14;;;;;;;9.48;5.32;;;4.50;99.90;;;;;;5042450;28;20029;-39
2024/02/27 00:59:39;;;;;;;9.60;5.53;;;4.40;99.90;;;;;;5040090;28;20025;-38
2024/02/27 01:02:05;;;;;;;10.82;5.38;;;4.40;99.90;;;;;;5037005;28;20148;-33
2024/02/27 01:04:32;;;;;;;9.63;5.95;;;4.40;99.90;;;;;;5035881;28;20124;-33
2024/02/27 01:06:58;;;;;;;10.32;5.53;;;4.40;99.90;;;;;;5040727;28;20036;-34
2024/02/27 01:09:24;;;;;;;11.48;5.90;;;4.50;99.90;;;;;;5039750;28;20029;-34
2024/02/27 01:11:49;;;;;;;9.27;5.10;;;4.60;99.90;;;;;;5035670;28;20029;-35
2024/02/27 01:14:15;;;;;;;9.70;4.72;;;4.60;99.90;;;;;;5040679;28;20449;-33
2024/02/27 01:16:42;;;;;;;10.18;5.20;;;4.60;99.90;;;;;;5040907;28;20029;-36
2024/02/27 01:19:11;;;;;;;8.50;5.03;;;4.60;99.90;;;;;;5039798;28;20144;-33
2024/02/27 01:21:36;;;;;;;;;;;4.60;99.90;;;;;;5038250;28;20033;-38
2024/02/27 01:24:05;;;;;;;8.95;5.03;;;4.60;99.90;;;;;;5036229;28;20370;-39
2024/02/27 01:26:31;;;;;;;8.88;5.05;;;4.60;99.90;;;;;;5037326;28;20055;-37
2024/02/27 01:28:57;;;;;;;8.70;5.70;;;4.60;99.90;;;;;;5042279;28;20423;-40
2024/02/27 01:31:23;;;;;;;8.80;5.57;;;4.60;99.90;;;;;;5025274;28;20061;-39
2024/02/27 01:33:48;;;;;;;8.00;4.90;;;4.60;99.90;;;;;;5015601;28;20022;-39
2024/02/27 01:36:14;;;;;;;8.40;5.05;;;4.50;99.90;;;;;;5020080;28;20092;-40
2024/02/27 01:38:39;;;;;;;9.25;4.68;;;4.50;99.90;;;;;;5022443;28;20029;-35
2024/02/27 01:41:05;;;;;;;10.75;5.35;;;4.50;99.90;;;;;;5019660;28;20296;-39
2024/02/27 01:43:31;;;;;;;11.57;6.18;;;4.50;99.90;;;;;;5021529;28;20083;-38
2024/02/27 01:46:04;;;;;;;10.73;5.75;;;4.60;99.90;;;;;;5023048;28;20056;-41
2024/02/27 01:48:33;;;;;;;8.50;5.82;;;4.60;99.90;;;;;;5018040;28;20116;-40
2024/02/27 01:50:59;;;;;;;8.40;5.22;;;4.60;99.90;;;;;;5023937;28;20423;-39
2024/02/27 01:53:24;;;;;;;11.02;5.60;;;4.70;99.90;;;;;;5021578;28;20033;-40
2024/02/27 01:55:50;;;;;;;12.13;5.57;;;4.70;99.90;;;;;;5017163;28;20022;-40
2024/02/27 01:58:17;;;;;;;9.55;5.15;;;4.70;99.90;;;;;;5023686;28;20030;-40
2024/02/27 02:00:44;;;;;;;10.15;5.72;;;4.70;99.90;;;;;;5019868;28;20057;-39
2024/02/27 02:03:11;;;;;;;10.45;6.15;;;4.70;99.90;;;;;;5018801;28;20026;-39
2024/02/27 02:05:37;;;;;;;8.00;5.25;;;4.70;99.90;;;;;;5018562;28;20816;-40
2024/02/27 02:08:03;;;;;;;8.32;5.57;;;4.70;99.90;;;;;;5023343;28;20038;-39
2024/02/27 02:10:29;;;;;;;11.20;6.18;;;4.60;99.90;;;;;;5025017;28;20036;-39
2024/02/27 02:12:54;;;;;;;9.07;5.45;;;4.60;99.90;;;;;;5023223;28;20033;-34
2024/02/27 02:15:20;;;;;;;10.00;5.78;;;4.60;99.90;;;;;;5020852;28;20566;-33
2024/02/27 02:17:46;;;;;;;9.88;5.90;;;4.60;99.90;;;;;;5021638;28;20087;-38
2024/02/27 02:20:16;;;;;;;9.18;5.30;;;4.60;99.90;;;;;;5023132;28;20021;-35
2024/02/27 02:22:42;;;;;;;9.30;5.05;;;4.60;99.90;;;;;;5024858;28;20029;-33
2024/02/27 02:25:10;;;;;;;10.05;5.53;;;4.60;99.90;;;;;;5021765;28;20029;-35
2024/02/27 02:27:39;;;;;;;10.20;6.57;;;4.60;99.90;;;;;;5025212;28;20044;-35
2024/02/27 02:30:06;;;;;;;8.77;5.78;;;4.60;99.90;;;;;;5026753;28;20040;-31
2024/02/27 02:32:31;;;;;;;7.28;4.88;;;4.60;99.90;;;;;;5031426;28;20079;-34
2024/02/27 02:34:57;;;;;;;9.85;5.13;;;4.60;99.90;;;;;;5041348;28;20048;-42
2024/02/27 02:37:26;;;;;;;8.60;5.43;;;4.60;99.90;;;;;;5044170;28;20501;-37
2024/02/27 02:39:51;;;;;;;;;;;4.50;99.90;;;;;;5038845;28;20032;-40
2024/02/27 02:42:17;;;;;;;7.47;5.28;;;4.50;99.90;;;;;;5043901;28;19908;-32
2024/02/27 02:44:43;;;;;;;11.02;5.90;;;4.50;99.90;;;;;;5045312;28;20025;-39
2024/02/27 02:47:08;;;;;;;7.50;5.35;;;4.50;99.90;;;;;;5043741;28;20037;-40
2024/02/27 02:49:34;;;;;;;8.38;5.55;;;4.50;99.90;;;;;;5039577;28;20028;-38
2024/02/27 02:52:00;;;;;;;11.77;6.60;;;4.50;99.90;;;;;;5045294;28;20367;-40
2024/02/27 02:54:25;;;;;;;10.88;6.68;;;4.40;99.90;;;;;;5038479;28;20041;-39
2024/02/27 02:56:51;;;;;;;9.40;5.55;;;4.40;99.90;;;;;;5037011;28;20445;-40
2024/02/27 02:59:16;;;;;;;11.05;6.00;;;4.30;99.90;;;;;;5042298;28;20096;-33
2024/02/27 03:01:42;;;;;;;12.18;6.97;;;4.30;99.90;;;;;;5032412;28;20025;-38
2024/02/27 03:04:09;;;;;;;10.05;5.97;;;4.30;99.90;;;;;;5016120;28;20084;-37
2024/02/27 03:06:35;;;;;;;10.90;6.25;;;4.30;99.90;;;;;;5016993;28;20033;-39
2024/02/27 03:09:00;;;;;;;13.32;6.95;;;4.30;99.90;;;;;;5024479;28;20030;-38
2024/02/27 03:11:26;;;;;;;10.10;6.28;;;4.30;99.90;;;;;;5021937;28;20801;-33
2024/02/27 03:13:52;;;;;;;13.68;6.97;;;4.30;99.90;;;;;;5014427;28;20128;-41
2024/02/27 03:16:18;;;;;;;11.77;6.45;;;4.30;99.90;;;;;;5018164;28;20032;-35
2024/02/27 03:18:43;;;;;;;12.25;6.90;;;4.40;99.90;;;;;;5024015;28;20026;-36
2024/02/27 03:21:10;;;;;;;12.90;6.82;;;4.30;99.90;;;;;;5023049;28;20140;-37
2024/02/27 03:23:35;;;;;;;12.85;6.82;;;4.30;99.90;;;;;;5020873;28;20686;-39
2024/02/27 03:26:01;;;;;;;11.20;6.40;;;4.30;99.90;;;;;;5023760;28;20100;-38
2024/02/27 03:28:26;;;;;;;13.00;7.72;;;4.30;99.90;;;;;;5020389;28;20383;-39
2024/02/27 03:30:52;;;;;;;11.63;6.90;;;4.30;99.90;;;;;;5021202;28;20143;-39
2024/02/27 03:33:18;;;;;;;13.25;7.45;;;4.30;99.90;;;;;;5067979;28;20061;-34
2024/02/27 03:35:43;;;;;;;14.75;7.05;;;4.30;99.90;;;;;;5037480;28;20042;-38
2024/02/27 03:38:10;;;;;;;16.27;7.50;;;4.30;99.90;;;;;;5040148;28;20029;-35
2024/02/27 03:40:35;;;;;;;10.65;5.85;;;4.30;99.90;;;;;;5036982;28;20481;-35
2024/02/27 03:43:01;;;;;;;16.58;7.63;;;4.30;99.90;;;;;;5042569;28;20036;-34
2024/02/27 03:45:26;;;;;;;10.85;6.78;;;4.30;99.90;;;;;;5039188;28;20034;-32
2024/02/27 03:47:52;;;;;;;17.42;7.25;;;4.30;99.90;;;;;;5041147;28;20055;-33
2024/02/27 03:50:18;;;;;;;11.95;6.88;;;4.30;99.90;;;;;;5038083;28;20071;-35
2024/02/27 03:52:43;;;;;;;14.45;7.47;;;4.20;99.90;;;;;;5038694;28;20062;-34
2024/02/27 03:55:09;;;;;;;15.55;7.82;;;4.30;99.90;;;;;;5040273;28;20036;-32
2024/02/27 03:57:34;;;;;;;15.48;7.90;;;4.20;99.90;;;;;;5039669;28;20497;-35
2024/02/27 04:00:00;;;;;;;13.35;7.10;;;4.20;99.90;;;;;;5040197;28;20036;-32
2024/02/27 04:02:26;;;;;;;13.55;7.47;;;4.20;99.90;;;;;;5037232;28;20108;-35
2024/02/27 04:04:51;;;;;;;13.32;6.82;;;4.20;99.90;;;;;;5039131;28;20390;-37
2024/02/27 04:07:17;;;;;;;11.68;6.57;;;4.20;99.90;;;;;;5040310;28;20033;-35
2024/02/27 04:09:42;;;;;;;12.95;7.03;;;4.20;99.90;;;;;;5041179;28;20033;-34
2024/02/27 04:12:08;;;;;;;10.82;5.88;;;4.20;99.90;;;;;;5036131;28;20032;-36
2024/02/27 04:14:33;;;;;;;9.70;6.78;;;4.20;99.90;;;;;;5040158;28;20056;-33
2024/02/27 04:17:00;;;;;;;11.98;6.95;;;4.20;99.90;;;;;;5039185;28;20087;-32
2024/02/27 04:19:25;;;;;;;12.23;6.57;;;4.20;99.90;;;;;;5043341;28;20096;-34
2024/02/27 04:21:51;;;;;;;13.57;6.95;;;4.10;99.90;;;;;;5042143;28;20500;-37
2024/02/27 04:24:16;;;;;;;13.52;6.60;;;4.10;99.90;;;;;;5038984;28;20025;-35
2024/02/27 04:26:43;;;;;;;16.42;7.55;;;4.10;99.90;;;;;;5041889;28;20067;-32
2024/02/27 04:29:08;;;;;;;16.10;7.43;;;4.10;99.90;;;;;;5038898;28;20040;-32
2024/02/27 04:31:34;;;;;;;13.55;7.57;;;4.10;99.90;;;;;;5042194;28;20029;-33
2024/02/27 04:34:00;;;;;;;14.25;8.63;;;4.10;99.90;;;;;;5036286;28;20061;-32
2024/02/27 04:36:26;;;;;;;14.52;7.78;;;4.20;99.90;;;;;;5036771;28;20072;-33
2024/02/27 04:38:51;;;;;;;14.27;7.60;;;4.20;99.90;;;;;;5040027;28;20072;-34
2024/02/27 04:41:17;;;;;;;14.95;7.47;;;4.10;99.90;;;;;;5041511;28;20422;-35
2024/02/27 04:43:42;;;;;;;14.68;8.15;;;4.10;99.90;;;;;;5041363;28;20553;-31
2024/02/27 04:46:08;;;;;;;14.85;8.20;;;4.10;99.90;;;;;;5042847;28;20044;-32
2024/02/27 04:48:34;;;;;;;17.45;8.18;;;4.10;99.90;;;;;;5072868;28;20074;-34
2024/02/27 04:51:00;;;;;;;12.18;8.10;;;4.10;99.90;;;;;;5033767;28;20060;-32
2024/02/27 04:53:25;;;;;;;14.90;8.40;;;4.10;99.90;;;;;;5040814;28;20063;-30
2024/02/27 04:55:51;;;;;;;12.55;7.90;;;4.10;99.90;;;;;;5042647;28;20550;-31
2024/02/27 04:58:16;;;;;;;16.00;8.30;;;4.10;99.90;;;;;;5041845;28;20112;-36
2024/02/27 05:00:42;;;;;;;17.90;8.57;;;4.10;99.90;;;;;;5039033;28;20054;-33
2024/02/27 05:03:08;;;;;;;13.88;8.02;;;4.10;99.90;;;;;;5040035;28;20049;-33
2024/02/27 05:05:36;;;;;;;17.67;8.65;;;4.10;99.90;;;;;;5040874;28;20144;-32
2024/02/27 05:08:02;;;;;;;19.65;8.18;;;4.10;99.90;;;;;;5040761;28;20025;-37
2024/02/27 05:10:28;;;;;;;16.67;9.10;;;4.10;99.90;;;;;;5041525;28;20034;-33
2024/02/27 05:12:54;;;;;;;15.00;8.38;;;4.10;99.90;;;;;;5039883;28;20072;-33
2024/02/27 05:15:19;;;;;;;15.60;8.45;;;4.10;99.90;;;;;;5042061;28;20375;-34
2024/02/27 05:17:45;;;;;;;21.80;8.98;;;4.10;99.90;;;;;;5040115;28;20067;-32
2024/02/27 05:20:12;;;;;;;19.40;10.50;;;4.10;99.90;;;;;;5044555;28;20136;-33
2024/02/27 05:22:37;;;;;;;15.13;8.98;;;4.00;99.90;;;;;;5043621;28;20390;-31
2024/02/27 05:25:03;;;;;;;21.27;9.55;;;4.00;99.90;;;;;;5041811;28;20054;-31
2024/02/27 05:27:29;;;;;;;16.75;9.15;;;4.00;99.90;;;;;;5046722;28;20033;-30
2024/02/27 05:29:55;;;;;;;21.95;9.00;;;4.00;99.90;;;;;;5046253;28;20554;-31
2024/02/27 05:32:21;;;;;;;19.20;9.32;;;4.00;99.90;;;;;;5043059;28;20112;-31
2024/02/27 05:34:46;;;;;;;21.20;10.27;;;4.10;99.90;;;;;;5060114;28;20132;-30
2024/02/27 05:37:12;;;;;;;20.48;10.02;;;4.00;99.90;;;;;;5044630;28;20029;-36
2024/02/27 05:39:38;;;;;;;19.60;10.10;;;4.10;99.90;;;;;;5041288;28;20029;-30
2024/02/27 05:42:03;;;;;;;19.83;9.68;;;4.10;99.90;;;;;;5044576;28;20033;-38
2024/02/27 05:44:29;;;;;;;18.20;9.07;;;4.10;99.90;;;;;;5042125;28;20086;-37
2024/02/27 05:46:54;;;;;;;19.55;9.02;;;4.10;99.90;;;;;;5044864;28;20029;-36
2024/02/27 05:49:20;;;;;;;16.98;9.02;;;4.10;99.90;;;;;;5042159;28;20032;-36
2024/02/27 05:51:47;;;;;;;21.98;9.77;;;4.10;99.90;;;;;;5043889;28;20449;-39
2024/02/27 05:54:13;;;;;;;25.38;10.10;;;4.10;99.90;;;;;;5039165;28;20033;-38
2024/02/27 05:56:38;;;;;;;18.83;8.82;;;4.10;99.90;;;;;;5041954;28;20040;-37
2024/02/27 05:59:04;;;;;;;19.42;9.20;;;4.10;99.90;;;;;;5043455;28;20036;-36
2024/02/27 06:01:30;;;;;;;23.00;10.32;;;4.10;99.90;;;;;;5031158;28;20033;-37
2024/02/27 06:03:55;;;;;;;23.13;9.45;;;4.10;99.90;;;;;;5023767;28;20029;-38
2024/02/27 06:06:21;;;;;;;21.20;10.73;;;4.10;99.90;;;;;;5020862;28;20028;-39
2024/02/27 06:08:47;;;;;;;22.20;11.02;;;4.10;99.90;;;;;;5023464;28;20498;-39
2024/02/27 06:11:12;;;;;;;21.00;10.38;;;4.10;99.90;;;;;;5023243;28;20029;-38
2024/02/27 06:13:38;;;;;;;19.73;10.63;;;4.10;99.90;;;;;;5025381;28;20119;-37
2024/02/27 06:16:04;;;;;;;22.05;10.52;;;4.10;99.90;;;;;;5025154;28;20041;-40
2024/02/27 06:18:29;;;;;;;20.33;10.57;;;4.20;99.90;;;;;;5019320;28;20061;-40
2024/02/27 06:23:40;;;;;;;17.98;10.15;;;4.20;99.90;;;;;;5023391;28;20087;-41
2024/02/27 06:26:08;;;;;;;19.15;9.13;;;4.30;99.90;;;;;;5022794;28;20112;-39
2024/02/27 06:28:33;;;;;;;19.85;11.00;;;4.20;99.90;;;;;;5019838;28;20042;-38
2024/02/27 06:30:59;;;;;;;22.90;11.13;;;4.20;99.90;;;;;;5020495;28;20053;-40
2024/02/27 06:33:25;;;;;;;23.02;11.00;;;4.20;99.90;;;;;;5028922;28;20656;-40
2024/02/27 06:35:50;;;;;;;20.35;11.07;;;4.20;99.90;;;;;;5024773;28;20042;-38
2024/02/27 06:38:16;;;;;;;22.38;10.80;;;4.30;99.90;;;;;;5022794;28;20041;-39
2024/02/27 06:40:43;;;;;;;25.65;11.38;;;4.30;99.90;;;;;;5023358;28;20627;-39
2024/02/27 06:43:09;;;;;;;22.63;10.70;;;4.30;99.90;;;;;;5025293;28;20026;-39
2024/02/27 06:45:35;;;;;;;23.40;9.60;;;4.30;99.90;;;;;;5029877;28;20383;-41
2024/02/27 06:48:01;;;;;;;19.83;10.68;;;4.30;99.90;;;;;;5010875;28;20213;-40
2024/02/27 06:50:26;;;;;;;18.85;9.23;;;4.30;99.90;;;;;;5013785;28;20036;-41
2024/02/27 06:52:53;;;;;;;20.55;11.23;;;4.30;99.90;;;;;;5025826;28;20711;-33
2024/02/27 06:55:18;;;;;;;19.10;11.07;;;4.40;99.90;;;;;;5029507;28;20044;-35
2024/02/27 06:57:44;;;;;;;20.02;10.57;;;4.40;99.90;;;;;;5026671;28;20029;-34
2024/02/27 07:00:10;;;;;;;22.90;10.55;;;4.40;99.90;;;;;;5018685;28;20029;-32
2024/02/27 07:02:36;;;;;;;20.45;11.05;;;4.40;99.90;;;;;;5034378;28;20383;-38
2024/02/27 07:05:03;;;;;;;23.65;10.77;;;4.50;99.90;;;;;;5029657;28;20021;-34
2024/02/27 07:07:28;;;;;;;18.95;9.55;;;4.50;99.90;;;;;;5030193;28;20026;-36
2024/02/27 07:09:54;;;;;;;35.83;12.90;;;4.50;99.90;;;;;;5032196;28;20083;-32
2024/02/27 07:12:19;;;;;;;21.88;10.13;;;4.50;99.90;;;;;;5036420;28;20024;-34
2024/02/27 07:14:47;;;;;;;26.30;12.45;;;4.50;99.90;;;;;;5038740;28;20495;-33
2024/02/27 07:17:12;;;;;;;23.05;9.95;;;4.50;99.90;;;;;;5033183;28;20040;-33
2024/02/27 07:19:42;;;;;;;26.88;10.10;;;4.60;99.90;;;;;;5042484;28;20568;-33
2024/02/27 07:22:08;;;;;;;24.92;11.25;;;4.60;99.90;;;;;;5043022;28;20096;-33
2024/02/27 07:24:33;;;;;;;22.05;11.32;;;4.60;99.90;;;;;;5038379;28;20143;-33
2024/02/27 07:26:59;;;;;;;18.35;9.77;;;4.60;99.90;;;;;;5041947;28;20032;-35
2024/02/27 07:29:25;;;;;;;19.35;8.93;;;4.60;99.90;;;;;;5042398;28;20661;-34
2024/02/27 07:31:51;;;;;;;21.65;10.60;;;4.70;99.90;;;;;;5031256;28;20495;-35
2024/02/27 07:34:17;;;;;;;21.25;9.90;;;4.70;99.90;;;;;;5022475;28;20022;-38
2024/02/27 07:36:45;;;;;;;19.08;9.82;;;4.70;99.90;;;;;;5024679;28;20700;-33
2024/02/27 07:39:11;;;;;;;;;;;4.80;99.90;;;;;;5021231;28;20052;-32
2024/02/27 07:41:38;;;;;;;23.08;10.75;;;4.80;99.90;;;;;;5020785;28;19909;-33
2024/02/27 07:44:04;;;;;;;19.80;10.32;;;4.80;99.90;;;;;;5024775;28;20083;-36
2024/02/27 07:46:30;;;;;;;18.67;9.75;;;4.90;99.90;;;;;;5022129;28;20467;-34
2024/02/27 07:48:56;;;;;;;24.92;11.13;;;4.90;99.90;;;;;;5024068;28;20040;-32
2024/02/27 07:51:34;;;;;;;24.98;11.00;;;4.90;99.90;;;;;;5023678;28;20079;-33
2024/02/27 07:54:00;;;;;;;;;;;4.90;99.90;;;;;;5026919;28;20034;-32
2024/02/27 07:56:30;;;;;;;19.45;10.88;;;4.90;99.90;;;;;;5019118;28;19913;-34
2024/02/27 07:58:57;;;;;;;19.90;9.93;;;4.90;99.90;;;;;;5021147;28;20033;-34
2024/02/27 08:01:26;;;;;;;19.98;11.32;;;4.90;99.90;;;;;;5026294;28;20597;-31
2024/02/27 08:03:52;;;;;;;24.48;11.48;;;5.00;99.90;;;;;;5026389;28;20814;-39
2024/02/27 08:06:19;;;;;;;23.77;10.35;;;5.00;99.90;;;;;;5016545;28;20034;-34
2024/02/27 08:08:45;;;;;;;22.52;10.45;;;5.00;99.90;;;;;;5025519;28;20156;-41
2024/02/27 08:11:11;;;;;;;19.55;9.43;;;5.10;99.90;;;;;;5025293;28;20583;-40
2024/02/27 08:13:37;;;;;;;25.00;10.80;;;5.10;99.90;;;;;;5021938;28;20137;-40
2024/02/27 08:16:03;;;;;;;20.98;10.30;;;5.10;99.90;;;;;;5032064;28;20459;-39
2024/02/27 08:18:29;;;;;;;23.85;11.07;;;5.10;99.90;;;;;;5023274;28;20060;-40
2024/02/27 08:20:55;;;;;;;20.13;10.50;;;5.10;99.90;;;;;;5023801;28;20022;-37
2024/02/27 08:23:20;;;;;;;18.02;9.95;;;5.10;99.90;;;;;;5021775;28;20449;-36
2024/02/27 08:25:46;;;;;;;20.27;10.70;;;5.10;99.90;;;;;;5033183;28;20368;-38
2024/02/27 08:28:12;;;;;;;23.17;10.30;;;5.10;99.90;;;;;;5025108;28;20037;-36
2024/02/27 08:30:38;;;;;;;20.58;10.80;;;5.20;99.90;;;;;;5023192;28;20112;-39
2024/02/27 08:33:04;;;;;;;25.30;11.00;;;5.20;99.90;;;;;;5043811;28;20028;-34
2024/02/27 08:35:30;;;;;;;23.13;11.40;;;5.20;99.90;;;;;;5041142;28;20045;-38
2024/02/27 08:37:56;;;;;;;21.13;10.90;;;5.20;99.90;;;;;;5043298;28;20060;-40
2024/02/27 08:40:21;;;;;;;23.67;10.85;;;5.20;99.90;;;;;;5041969;28;20017;-38
2024/02/27 08:42:47;;;;;;;19.70;9.73;;;5.30;99.90;;;;;;5039944;28;20087;-37
2024/02/27 08:45:13;;;;;;;21.50;10.18;;;5.20;99.90;;;;;;5041598;28;20020;-38
2024/02/27 08:47:38;;;;;;;18.92;10.60;;;5.30;99.90;;;;;;5041225;28;20060;-39
2024/02/27 08:50:05;;;;;;;20.63;11.25;;;5.30;99.90;;;;;;5042176;28;20441;-39
2024/02/27 08:52:31;;;;;;;22.08;11.35;;;5.40;99.90;;;;;;5041594;28;20083;-38
2024/02/27 08:54:56;;;;;;;24.25;11.88;;;5.50;99.90;;;;;;5043338;28;20029;-39
2024/02/27 08:57:22;;;;;;;19.33;10.20;;;5.60;99.90;;;;;;5046151;28;20068;-38
2024/02/27 08:59:48;;;;;;;22.38;10.80;;;5.60;99.90;;;;;;5043582;28;20243;-39
2024/02/27 09:02:17;;;;;;;21.05;10.82;;;5.60;99.90;;;;;;5023927;28;20450;-38
2024/02/27 09:04:43;;;;;;;21.30;10.30;;;5.70;99.90;;;;;;5017604;28;20025;-39
2024/02/27 09:07:10;;;;;;;22.27;10.43;;;5.70;99.90;;;;;;5023665;28;20060;-39
2024/02/27 09:09:36;;;;;;;21.13;10.10;;;5.70;99.90;;;;;;5021835;28;20088;-35
2024/02/27 09:12:05;;;;;;;18.75;9.07;;;5.80;99.90;;;;;;5021400;28;20087;-33
2024/02/27 09:14:33;;;;;;;20.38;11.13;;;5.80;99.90;;;;;;5023411;28;20079;-33
2024/02/27 09:16:59;;;;;;;24.58;12.02;;;5.90;99.90;;;;;;5022325;28;20034;-32
2024/02/27 09:19:28;;;;;;;20.65;11.93;;;5.90;99.90;;;;;;5024439;28;20036;-34
2024/02/27 09:21:54;;;;;;;22.25;11.70;;;5.90;99.90;;;;;;5017367;28;20064;-32
2024/02/27 09:24:20;;;;;;;19.15;10.52;;;5.90;99.90;;;;;;5021543;28;20029;-35
2024/02/27 09:26:46;;;;;;;21.77;11.00;;;5.90;99.90;;;;;;5020644;28;20104;-36
2024/02/27 09:29:11;;;;;;;19.10;10.15;;;6.00;99.90;;;;;;5021211;28;20042;-33
2024/02/27 09:31:37;;;;;;;20.45;10.68;;;6.00;99.90;;;;;;5020382;28;20037;-32
2024/02/27 09:34:03;;;;;;;19.50;10.10;;;6.10;99.90;;;;;;5019212;28;20032;-32
2024/02/27 09:36:29;;;;;;;22.73;11.10;;;6.20;99.90;;;;;;5018236;28;20056;-33
2024/02/27 09:38:54;;;;;;;25.15;11.65;;;6.20;99.90;;;;;;5020092;28;20148;-34
2024/02/27 09:41:44;;;;;;;19.52;10.93;;;6.20;99.90;;;;;;5023024;28;20025;-32
2024/02/27 09:44:09;;;;;;;20.33;11.13;;;6.20;99.90;;;;;;5019030;28;20034;-33
2024/02/27 09:46:38;;;;;;;19.73;9.82;;;6.20;99.90;;;;;;5020848;28;20037;-32
2024/02/27 09:49:06;;;;;;;22.40;10.45;;;6.20;99.90;;;;;;5018338;28;20030;-31
2024/02/27 09:51:35;;;;;;;17.60;10.40;;;6.30;99.90;;;;;;5021850;28;20045;-32
2024/02/27 09:54:02;;;;;;;17.73;10.02;;;6.30;99.90;;;;;;5017817;28;20029;-31
2024/02/27 09:56:27;;;;;;;23.50;11.45;;;6.20;99.90;;;;;;5020196;28;20061;-34
2024/02/27 09:58:54;;;;;;;25.70;12.70;;;6.30;99.90;;;;;;5023703;28;20511;-35
2024/02/27 10:01:22;;;;;;;22.25;11.52;;;6.30;99.90;;;;;;5020648;28;20739;-34
2024/02/27 10:03:48;;;;;;;23.75;11.75;;;6.30;99.90;;;;;;5017343;28;20083;-33
2024/02/27 10:06:15;;;;;;;20.95;11.15;;;6.40;99.90;;;;;;5021359;28;20022;-34
2024/02/27 10:08:47;;;;;;;17.92;10.98;;;6.40;99.90;;;;;;5020169;28;20057;-35
2024/02/27 10:11:14;;;;;;;25.73;11.57;;;6.40;99.90;;;;;;5020271;28;20060;-34
2024/02/27 10:13:39;;;;;;;22.08;12.25;;;6.40;99.90;;;;;;5023530;28;20083;-33
2024/02/27 10:16:06;;;;;;;21.73;11.15;;;6.50;99.90;;;;;;5023786;28;20037;-34
2024/02/27 10:18:31;;;;;;;19.05;11.15;;;6.50;99.90;;;;;;5019979;28;20044;-32
2024/02/27 10:20:57;;;;;;;23.45;12.90;;;6.50;99.90;;;;;;5016492;28;20484;-34
2024/02/27 10:23:23;;;;;;;24.67;11.20;;;6.50;99.90;;;;;;5025527;28;20025;-31
2024/02/27 10:25:50;;;;;;;21.67;10.88;;;6.60;99.90;;;;;;5024207;28;20030;-34
2024/02/27 10:28:18;;;;;;;16.98;10.32;;;6.60;99.90;;;;;;5020673;28;20030;-32
2024/02/27 10:30:44;;;;;;;24.10;12.15;;;6.60;99.90;;;;;;5022225;28;20095;-32
2024/02/27 10:33:13;;;;;;;17.65;10.40;;;6.60;99.90;;;;;;5045354;28;20032;-32
2024/02/27 10:35:40;;;;;;;24.58;11.48;;;6.60;99.90;;;;;;5044624;28;20053;-32
2024/02/27 10:38:17;;;;;;;20.15;10.88;;;6.70;99.90;;;;;;5041722;28;20039;-33
2024/02/27 10:40:43;;;;;;;22.20;11.20;;;6.70;99.90;;;;;;5041924;28;20516;-35
2024/02/27 10:43:10;;;;;;;22.88;11.82;;;6.70;99.90;;;;;;5043141;28;20328;-38
2024/02/27 10:45:35;;;;;;;23.73;12.20;;;6.80;99.90;;;;;;5042213;28;20037;-40
2024/02/27 10:48:03;;;;;;;24.75;12.05;;;6.80;99.90;;;;;;5043107;28;20021;-41
2024/02/27 10:50:29;;;;;;;23.60;12.15;;;6.80;99.90;;;;;;5040659;28;20037;-38
2024/02/27 10:52:59;;;;;;;20.20;11.40;;;6.80;99.90;;;;;;5041478;28;20114;-41
2024/02/27 10:55:26;;;;;;;23.10;11.32;;;6.80;99.90;;;;;;5042193;28;20503;-41
2024/02/27 10:57:59;;;;;;;21.38;11.65;;;6.90;99.90;;;;;;5046954;28;20267;-39
2024/02/27 11:00:25;;;;;;;21.00;11.15;;;7.00;99.90;;;;;;5046180;28;20031;-41
2024/02/27 11:02:55;;;;;;;24.05;13.35;;;6.90;99.90;;;;;;5022189;28;20637;-37
2024/02/27 11:05:23;;;;;;;24.48;11.13;;;7.00;99.90;;;;;;5021254;28;20032;-36
2024/02/27 11:07:50;;;;;;;22.88;12.00;;;6.90;99.90;;;;;;5017294;28;20083;-37
2024/02/27 11:10:17;;;;;;;21.02;11.18;;;6.90;99.90;;;;;;5024611;28;20128;-37
2024/02/27 11:12:48;;;;;;;21.15;10.88;;;7.00;99.90;;;;;;5021333;28;20457;-37
2024/02/27 11:15:16;;;;;;;21.05;11.63;;;7.00;99.90;;;;;;5025182;28;20029;-39
2024/02/27 11:17:48;;;;;;;16.48;10.85;;;6.90;99.90;;;;;;5034910;28;20030;-37
2024/02/27 11:20:15;;;;;;;18.70;9.70;;;6.90;99.90;;;;;;5021129;28;20033;-40
2024/02/27 11:22:43;;;;;;;21.02;10.60;;;6.90;99.90;;;;;;5018531;28;20103;-41
2024/02/27 11:25:10;;;;;;;20.70;10.32;;;6.90;99.90;;;;;;5022178;28;20040;-37
2024/02/27 11:27:37;;;;;;;16.83;10.98;;;6.90;99.90;;;;;;5020888;28;20104;-41
2024/02/27 11:30:05;;;;;;;19.10;9.65;;;7.00;99.90;;;;;;5021304;28;20033;-42
2024/02/27 11:32:34;;;;;;;20.88;11.48;;;7.10;99.90;;;;;;5019194;28;20043;-36
2024/02/27 11:35:01;;;;;;;17.65;9.95;;;7.20;99.90;;;;;;5022304;28;20041;-32
2024/02/27 11:37:27;;;;;;;17.95;9.73;;;7.30;99.90;;;;;;5021022;28;20048;-32
2024/02/27 11:39:53;;;;;;;17.40;9.82;;;7.30;99.90;;;;;;5024165;28;20029;-35
2024/02/27 11:42:40;;;;;;;20.02;9.90;;;7.30;99.90;;;;;;5016933;28;20037;-33
2024/02/27 11:45:25;;;;;;;18.33;9.95;;;7.30;99.90;;;;;;5020608;28;20026;-32
2024/02/27 11:47:52;;;;;;;16.25;9.10;;;7.40;99.90;;;;;;5025848;28;20422;-31
2024/02/27 11:50:38;;;;;;;19.27;10.18;;;7.50;99.90;;;;;;5026931;28;20502;-33
2024/02/27 11:53:16;;;;;;;20.25;10.82;;;7.60;99.90;;;;;;5022832;28;20029;-36
2024/02/27 11:55:46;;;;;;;19.60;9.43;;;7.70;99.90;;;;;;5017930;28;20120;-39
2024/02/27 11:58:12;;;;;;;17.27;9.65;;;7.80;99.90;;;;;;5025394;28;20036;-39
2024/02/27 12:00:38;;;;;;;15.43;10.40;;;7.80;99.90;;;;;;5021873;28;20372;-37
2024/02/27 12:03:07;;;;;;;19.20;10.40;;;7.90;99.90;;;;;;5045033;28;20031;-38
2024/02/27 12:05:33;;;;;;;17.30;9.25;;;7.90;99.90;;;;;;5038072;28;20029;-39
2024/02/27 12:08:01;;;;;;;20.17;10.70;;;7.90;99.90;;;;;;5044859;28;20281;-39
2024/02/27 12:10:28;;;;;;;20.13;10.25;;;8.00;99.90;;;;;;5045066;28;20091;-38
2024/02/27 12:12:53;;;;;;;19.15;11.02;;;8.00;99.90;;;;;;5046270;28;20559;-38
2024/02/27 12:15:20;;;;;;;15.23;9.32;;;8.10;99.90;;;;;;5041387;28;20036;-35
2024/02/27 12:17:46;;;;;;;19.25;9.55;;;8.10;99.90;;;;;;5041930;28;20040;-35
2024/02/27 12:20:13;;;;;;;15.35;8.82;;;8.00;99.90;;;;;;5041428;28;20021;-39
2024/02/27 12:22:40;;;;;;;16.73;8.98;;;7.90;99.90;;;;;;5044448;28;20536;-39
2024/02/27 12:25:06;;;;;;;18.10;9.63;;;8.00;99.90;;;;;;5044544;28;20029;-38
2024/02/27 12:27:33;;;;;;;17.52;10.23;;;7.80;99.90;;;;;;5044744;28;20479;-38
2024/02/27 12:30:12;;;;;;;18.75;11.07;;;7.80;99.90;;;;;;5037737;28;20616;-38
2024/02/27 12:32:44;;;;;;;14.75;9.40;;;7.80;99.90;;;;;;5027825;28;20161;-39
2024/02/27 12:35:15;;;;;;;16.38;9.88;;;7.80;99.90;;;;;;5016704;28;20049;-38
2024/02/27 12:37:50;;;;;;;14.55;8.98;;;7.90;99.90;;;;;;5026697;28;20030;-39
2024/02/27 12:40:18;;;;;;;14.55;9.35;;;7.80;99.90;;;;;;5022308;28;20033;-37
2024/02/27 12:42:45;;;;;;;17.95;10.20;;;7.80;99.90;;;;;;5024981;28;20063;-41
2024/02/27 12:45:13;;;;;;;14.50;9.40;;;7.90;99.90;;;;;;5008492;28;20025;-41